Time;durP1;ratioP1;P1;durP2;ratioP2;P2;SDS_P1;SDS_P2;PMS_P1;PMS_P2;Temp;Humidity;BMP_temperature;BMP_pressure;BME280_temperature;BME280_humidity;BME280_pressure;Samples;Min_cycle;Max_cycle;Signal;HPM_P1;HPM_P2
2022/12/09 00:00:19;;;;;;;32.53;12.63;;;3.60;99.90;;;;;;4964854;28;20050;-82
2022/12/09 00:02:44;;;;;;;25.88;13.15;;;3.80;99.90;;;;;;4983318;28;20061;-80
2022/12/09 00:05:10;;;;;;;27.45;12.95;;;3.80;99.90;;;;;;4984657;28;20050;-82
2022/12/09 00:07:36;;;;;;;26.30;13.27;;;3.60;99.90;;;;;;4966944;28;20027;-82
2022/12/09 00:10:03;;;;;;;26.73;13.07;;;4.00;99.90;;;;;;4983253;28;20395;-86
2022/12/09 00:12:29;;;;;;;25.75;13.70;;;;;;;;;;4989580;28;20011;-81
2022/12/09 00:14:55;;;;;;;31.85;14.27;;;3.70;99.90;;;;;;4976552;28;20038;-82
2022/12/09 00:17:20;;;;;;;28.42;13.07;;;6.20;99.90;;;;;;4977239;28;20023;-84
2022/12/09 00:19:46;;;;;;;25.90;13.60;;;7.10;99.90;;;;;;4976296;28;20089;-86
2022/12/09 00:22:12;;;;;;;28.13;14.32;;;3.60;99.90;;;;;;4975504;28;20054;-83
2022/12/09 00:24:38;;;;;;;27.00;13.40;;;3.20;99.90;;;;;;4972255;28;20035;-84
2022/12/09 00:27:03;;;;;;;27.77;14.05;;;3.60;99.90;;;;;;4970475;28;20128;-86
2022/12/09 00:29:29;;;;;;;31.27;14.73;;;4.10;99.90;;;;;;4974236;28;20039;-84
2022/12/09 00:31:54;;;;;;;30.85;14.23;;;6.30;99.90;;;;;;4971751;28;20043;-86
2022/12/09 00:34:21;;;;;;;27.30;13.68;;;;;;;;;;4989030;28;20929;-85
2022/12/09 00:36:47;;;;;;;29.00;14.57;;;3.70;99.90;;;;;;4984564;28;20039;-83
2022/12/09 00:39:13;;;;;;;29.63;14.90;;;3.70;99.90;;;;;;4966425;28;20039;-84
2022/12/09 00:41:38;;;;;;;30.23;13.57;;;3.70;99.90;;;;;;4973392;28;20038;-83
2022/12/09 00:44:04;;;;;;;29.30;13.57;;;5.60;99.90;;;;;;4990363;28;20031;-83
2022/12/09 00:46:30;;;;;;;27.60;13.32;;;;;;;;;;4984716;28;20031;-83
2022/12/09 00:48:56;;;;;;;26.45;12.95;;;3.70;99.90;;;;;;4970105;28;20035;-82
2022/12/09 00:51:24;;;;;;;25.38;12.68;;;7.50;99.90;;;;;;4979663;28;20122;-82
2022/12/09 00:53:54;;;;;;;27.95;13.05;;;;;;;;;;4992049;28;20061;-83
2022/12/09 00:56:25;;;;;;;28.77;13.70;;;3.80;99.90;;;;;;4998261;28;20098;-84
2022/12/09 00:58:51;;;;;;;27.30;14.30;;;7.20;99.90;;;;;;4999647;28;20042;-86
2022/12/09 01:01:17;;;;;;;29.63;13.93;;;7.20;99.90;;;;;;4974589;28;20043;-85
2022/12/09 01:03:43;;;;;;;28.67;13.77;;;6.60;99.90;;;;;;4982498;28;20691;-85
2022/12/09 01:06:12;;;;;;;28.58;14.82;;;6.40;99.90;;;;;;4977827;28;20026;-83
2022/12/09 01:08:37;;;;;;;29.77;14.32;;;3.70;99.90;;;;;;4977832;28;20061;-87
2022/12/09 01:11:22;;;;;;;32.72;15.13;;;3.60;99.90;;;;;;4984175;28;20038;-85
2022/12/09 01:13:49;;;;;;;25.35;13.43;;;6.00;99.90;;;;;;4973012;28;20067;-85
2022/12/09 01:16:20;;;;;;;29.85;13.60;;;3.40;99.90;;;;;;4976013;28;20037;-84
2022/12/09 01:18:46;;;;;;;34.00;14.65;;;;;;;;;;4994221;28;20078;-83
2022/12/09 01:21:13;;;;;;;26.10;13.32;;;;;;;;;;4972651;28;20027;-83
2022/12/09 01:23:39;;;;;;;24.98;12.73;;;;;;;;;;4973362;28;20015;-83
2022/12/09 01:26:06;;;;;;;29.08;13.98;;;3.50;99.90;;;;;;4993144;28;20048;-84
2022/12/09 01:28:34;;;;;;;29.25;15.07;;;3.50;99.90;;;;;;4973740;28;20058;-85
2022/12/09 01:31:10;;;;;;;27.77;14.30;;;3.50;99.90;;;;;;4973488;28;20041;-85
2022/12/09 01:33:35;;;;;;;29.50;14.07;;;3.50;99.90;;;;;;4980748;28;20027;-85
2022/12/09 01:36:07;;;;;;;28.35;13.25;;;3.50;99.90;;;;;;4975429;28;20033;-83
2022/12/09 01:38:33;;;;;;;29.38;13.98;;;;;;;;;;4973210;28;20050;-83
2022/12/09 01:40:59;;;;;;;32.20;14.90;;;3.50;99.90;;;;;;4993816;28;20027;-81
2022/12/09 01:43:25;;;;;;;28.40;14.05;;;;;;;;;;4994576;28;20045;-83
2022/12/09 01:45:51;;;;;;;29.00;14.30;;;;;;;;;;4990986;28;20062;-85
2022/12/09 01:48:19;;;;;;;26.30;13.73;;;3.40;99.90;;;;;;4991657;28;20050;-84
2022/12/09 01:50:48;;;;;;;28.80;14.02;;;6.20;99.90;;;;;;4970025;28;20031;-85
2022/12/09 01:53:16;;;;;;;26.10;13.38;;;3.40;99.90;;;;;;4973409;28;20039;-84
2022/12/09 01:55:42;;;;;;;28.92;15.15;;;;;;;;;;4992327;28;20081;-83
2022/12/09 01:58:09;;;;;;;30.80;13.95;;;4.40;99.90;;;;;;4975849;28;20041;-84
2022/12/09 02:00:35;;;;;;;29.17;13.40;;;;;;;;;;4976067;28;20014;-83
2022/12/09 02:03:01;;;;;;;29.13;14.30;;;;;;;;;;4977258;28;20035;-87
2022/12/09 02:05:29;;;;;;;28.45;14.00;;;3.40;99.90;;;;;;4995016;28;20424;-84
2022/12/09 02:07:55;;;;;;;29.95;15.43;;;6.40;99.90;;;;;;4978079;28;20023;-83
2022/12/09 02:10:21;;;;;;;30.42;14.68;;;;;;;;;;4978247;28;20027;-85
2022/12/09 02:12:47;;;;;;;31.42;15.32;;;;;;;;;;4992519;28;20034;-82
2022/12/09 02:15:40;;;;;;;27.17;13.93;;;3.30;99.90;;;;;;4975863;28;20049;-87
2022/12/09 02:18:32;;;;;;;32.67;15.38;;;5.30;99.90;;;;;;4976248;28;20110;-84
2022/12/09 02:21:07;;;;;;;32.33;15.70;;;3.30;99.90;;;;;;4974764;28;20030;-85
2022/12/09 02:23:45;;;;;;;33.58;15.70;;;3.20;99.90;;;;;;4985401;28;20115;-86
2022/12/09 02:26:10;;;;;;;34.95;17.10;;;;;;;;;;4980043;28;20074;-86
2022/12/09 02:28:36;;;;;;;31.27;16.30;;;3.20;99.90;;;;;;4984209;28;20015;-85
2022/12/09 02:31:26;;;;;;;35.58;16.15;;;3.20;99.90;;;;;;4974193;28;20047;-86
2022/12/09 02:34:16;;;;;;;35.85;16.80;;;3.20;99.90;;;;;;4976453;28;20044;-85
2022/12/09 02:37:09;;;;;;;33.97;16.60;;;3.20;99.90;;;;;;4992834;28;20034;-85
2022/12/09 02:39:48;;;;;;;35.20;16.67;;;3.10;99.90;;;;;;4992364;28;20048;-88
2022/12/09 02:42:18;;;;;;;31.17;15.00;;;3.10;99.90;;;;;;4990724;28;20027;-85
2022/12/09 02:44:46;;;;;;;30.38;15.50;;;3.00;99.90;;;;;;4975832;28;20066;-86
2022/12/09 02:47:15;;;;;;;31.50;15.68;;;3.20;99.90;;;;;;4991527;28;20027;-87
2022/12/09 02:49:42;;;;;;;28.33;13.70;;;3.10;99.90;;;;;;4983271;28;20030;-87
2022/12/09 02:52:09;;;;;;;32.85;15.90;;;7.00;99.90;;;;;;4976505;28;20019;-83
2022/12/09 02:54:37;;;;;;;30.33;14.95;;;3.00;99.90;;;;;;4976612;28;20023;-83
2022/12/09 02:57:11;;;;;;;32.38;14.43;;;3.00;99.90;;;;;;4993402;28;20038;-83
2022/12/09 02:59:37;;;;;;;28.80;15.18;;;;;;;;;;4975067;28;20059;-84
2022/12/09 03:02:28;;;;;;;31.13;15.10;;;2.90;99.90;;;;;;4991380;28;20569;-83
2022/12/09 03:05:24;;;;;;;32.88;14.63;;;2.90;99.90;;;;;;4975005;28;20023;-85
2022/12/09 03:08:13;;;;;;;30.23;14.35;;;2.90;99.90;;;;;;4988362;28;20020;-85
2022/12/09 03:10:57;;;;;;;29.35;14.63;;;3.00;99.90;;;;;;4992281;28;20022;-83
2022/12/09 03:13:35;;;;;;;30.42;13.77;;;3.10;99.90;;;;;;4985641;28;20038;-83
2022/12/09 03:16:12;;;;;;;28.27;14.50;;;3.10;99.90;;;;;;4989343;28;20015;-87
2022/12/09 03:18:43;;;;;;;27.50;13.70;;;3.00;99.90;;;;;;4970975;28;20076;-85
2022/12/09 03:21:10;;;;;;;26.77;13.35;;;3.00;99.90;;;;;;4989255;28;20011;-85
2022/12/09 03:23:36;;;;;;;27.60;13.25;;;;;;;;;;4973779;28;20102;-80
2022/12/09 03:26:04;;;;;;;27.85;13.90;;;2.90;99.90;;;;;;4973286;28;20051;-83
2022/12/09 03:28:35;;;;;;;26.83;13.30;;;2.80;99.90;;;;;;4991720;28;20034;-81
2022/12/09 03:31:02;;;;;;;;;;;5.20;99.90;;;;;;4967696;28;20098;-83
2022/12/09 03:33:30;;;;;;;26.35;13.15;;;2.90;99.90;;;;;;4974040;28;19913;-81
2022/12/09 03:35:59;;;;;;;23.60;12.25;;;2.70;99.90;;;;;;4975045;28;20023;-84
2022/12/09 03:38:29;;;;;;;24.55;12.57;;;2.70;99.90;;;;;;4972787;28;20034;-83
2022/12/09 03:41:17;;;;;;;29.50;13.55;;;6.00;99.90;;;;;;4981578;28;20031;-82
2022/12/09 03:43:50;;;;;;;28.08;13.85;;;2.60;99.90;;;;;;4994846;28;20058;-81
2022/12/09 03:46:16;;;;;;;25.50;12.48;;;;;;;;;;4979466;28;20075;-79
2022/12/09 03:48:43;;;;;;;31.50;14.20;;;;;;;;;;4976648;28;20019;-80
2022/12/09 03:51:17;;;;;;;27.58;13.35;;;2.60;99.90;;;;;;4990728;28;20033;-83
2022/12/09 03:53:57;;;;;;;27.48;14.18;;;2.60;99.90;;;;;;4988214;28;20034;-84
2022/12/09 03:56:36;;;;;;;29.02;13.27;;;2.60;99.90;;;;;;4968053;28;20479;-81
2022/12/09 03:59:06;;;;;;;26.35;13.05;;;2.80;99.90;;;;;;4986647;28;20030;-84
2022/12/09 04:01:32;;;;;;;24.73;12.20;;;2.50;99.90;;;;;;4990463;28;20046;-84
2022/12/09 04:03:58;;;;;;;29.38;13.93;;;;;;;;;;4973603;28;20039;-83
2022/12/09 04:06:24;;;;;;;26.48;13.30;;;2.80;99.90;;;;;;4990083;28;20062;-84
2022/12/09 04:08:50;;;;;;;28.08;12.52;;;2.70;99.90;;;;;;4957728;28;20042;-85
2022/12/09 04:11:15;;;;;;;29.08;13.13;;;2.80;99.90;;;;;;4990496;28;20026;-83
2022/12/09 04:13:41;;;;;;;26.17;12.40;;;4.20;99.90;;;;;;4991501;28;20045;-85
2022/12/09 04:16:08;;;;;;;26.48;12.02;;;2.70;99.90;;;;;;4973970;28;20035;-83
2022/12/09 04:18:34;;;;;;;25.33;12.38;;;;;;;;;;4972784;28;20051;-83
2022/12/09 04:21:01;;;;;;;28.90;13.15;;;;;;;;;;4969680;28;20520;-85
2022/12/09 04:23:27;;;;;;;27.77;12.00;;;;;;;;;;4987259;28;20050;-84
2022/12/09 04:25:53;;;;;;;24.95;11.93;;;2.70;99.90;;;;;;4967925;28;20434;-83
2022/12/09 04:28:19;;;;;;;26.00;12.10;;;;;;;;;;4974561;28;20007;-82
2022/12/09 04:30:46;;;;;;;26.65;11.35;;;2.70;99.90;;;;;;4971218;28;20042;-82
2022/12/09 04:33:11;;;;;;;23.83;11.75;;;;;;;;;;4987338;28;20033;-82
2022/12/09 04:35:38;;;;;;;25.50;11.68;;;;;;;;;;4986664;28;20035;-85
2022/12/09 04:38:04;;;;;;;23.50;11.70;;;;;;;;;;4988763;28;20030;-84
2022/12/09 04:40:30;;;;;;;26.35;12.98;;;;;;;;;;4988490;28;20035;-81
2022/12/09 04:42:57;;;;;;;29.27;13.65;;;2.40;99.90;;;;;;4968286;28;20399;-81
2022/12/09 04:45:23;;;;;;;29.15;13.57;;;;;;;;;;4972763;28;20030;-82
2022/12/09 05:52:12;;;;;;;26.63;11.82;;;;;;;;;;5521975;23;20071;-82
2022/12/09 06:14:49;;;;;;;22.13;10.35;;;2.50;99.90;;;;;;5014641;23;20062;-83
2022/12/09 06:17:34;;;;;;;;;;;;;;;;;;;;;
2022/12/09 06:28:47;;;;;;;21.40;10.57;;;;;;;;;;5006848;23;20059;-83
2022/12/09 06:31:18;;;;;;;25.50;11.50;;;2.80;99.90;;;;;;4988577;28;20038;-83
2022/12/09 06:37:08;;;;;;;23.83;11.55;;;;;;;;;;4972836;28;20053;-84
2022/12/09 07:11:22;;;;;;;26.15;11.63;;;2.40;99.90;;;;;;4954710;28;20508;-81
2022/12/09 07:13:50;;;;;;;24.88;12.45;;;2.30;99.90;;;;;;4954746;28;20066;-81
2022/12/09 07:16:19;;;;;;;25.58;11.85;;;;;;;;;;4971218;28;20118;-82
2022/12/09 07:19:46;;;;;;;30.95;12.07;;;2.30;99.90;;;;;;4955372;29;20038;-82
2022/12/09 07:23:20;;;;;;;24.85;12.45;;;2.30;99.90;;;;;;4922950;29;20047;-82
2022/12/09 07:29:49;;;;;;;;;;;2.20;99.90;;;;;;4940693;29;20300;-81
2022/12/09 07:33:15;;;;;;;28.40;12.25;;;2.20;99.90;;;;;;4937893;29;19911;-82
2022/12/09 07:36:39;;;;;;;25.95;11.85;;;2.30;99.90;;;;;;4932399;29;20071;-82
2022/12/09 07:39:56;;;;;;;26.58;12.27;;;2.30;99.90;;;;;;4939034;29;20091;-81
2022/12/09 07:43:03;;;;;;;25.45;12.68;;;2.30;99.90;;;;;;4925275;29;20039;-82
2022/12/09 09:27:00;;;;;;;23.83;12.15;;;2.70;99.90;;;;;;5213310;23;20227;-85
2022/12/09 09:29:26;;;;;;;32.60;14.40;;;;;;;;;;4965972;28;20059;-79
2022/12/09 09:31:53;;;;;;;27.00;13.43;;;;;;;;;;4996111;23;20074;-81
2022/12/09 09:34:20;;;;;;;28.60;14.02;;;2.80;99.90;;;;;;4979350;28;20094;-80
2022/12/09 09:36:55;;;;;;;25.08;11.98;;;;;;;;;;4951741;28;20027;-79
2022/12/09 09:39:22;;;;;;;31.52;14.65;;;2.80;99.90;;;;;;4963480;28;20026;-82
2022/12/09 09:41:52;;;;;;;28.20;13.15;;;;;;;;;;4979611;28;20047;-82
2022/12/09 09:44:21;;;;;;;28.50;13.75;;;;;;;;;;4998468;28;20059;-82
2022/12/09 09:46:49;;;;;;;29.33;15.00;;;3.00;99.90;;;;;;4991605;28;20034;-81
2022/12/09 09:49:39;;;;;;;41.63;20.13;;;3.00;99.90;;;;;;4976940;28;20027;-81
2022/12/09 09:52:22;;;;;;;22.55;12.15;;;3.10;99.90;;;;;;4971335;28;20102;-82
2022/12/09 09:54:48;;;;;;;28.73;13.05;;;;;;;;;;4974475;28;20031;-80
2022/12/09 09:57:35;;;;;;;24.40;12.15;;;3.20;99.90;;;;;;4991780;28;20350;-81
2022/12/09 10:00:24;;;;;;;24.98;12.43;;;3.20;99.90;;;;;;4987559;28;20083;-81
2022/12/09 10:03:03;;;;;;;22.50;12.02;;;3.20;99.90;;;;;;4976352;28;20061;-80
2022/12/09 10:05:39;;;;;;;26.67;13.10;;;3.30;99.90;;;;;;4981570;28;20061;-80
2022/12/09 10:08:43;;;;;;;25.40;13.15;;;3.30;99.90;;;;;;4966587;28;20499;-80
2022/12/09 10:11:18;;;;;;;24.63;13.55;;;;;;;;;;4965981;28;20051;-79
2022/12/09 10:13:50;;;;;;;29.38;13.20;;;3.50;99.90;;;;;;4976319;28;20542;-79
2022/12/09 10:16:36;;;;;;;28.27;12.25;;;3.60;99.90;;;;;;4957099;29;20086;-81
2022/12/09 10:19:15;;;;;;;26.40;12.60;;;3.80;99.90;;;;;;4976283;28;20412;-80
2022/12/09 10:21:44;;;;;;;27.48;13.32;;;4.00;99.90;;;;;;4966409;28;20122;-81
2022/12/09 10:24:17;;;;;;;25.63;13.10;;;;;;;;;;4968879;28;20121;-80
2022/12/09 10:27:04;;;;;;;25.75;12.60;;;4.00;99.90;;;;;;4983829;28;20110;-80
2022/12/09 10:29:54;;;;;;;21.33;11.55;;;4.10;99.90;;;;;;4969551;28;20045;-80
2022/12/09 10:32:23;;;;;;;21.60;11.63;;;4.10;99.90;;;;;;4971506;28;20094;-81
2022/12/09 10:34:52;;;;;;;23.13;11.35;;;;;;;;;;4965624;28;20487;-79
2022/12/09 10:37:36;;;;;;;24.70;12.70;;;4.20;99.90;;;;;;4963799;28;20030;-79
2022/12/09 10:40:02;;;;;;;25.48;11.68;;;;;;;;;;4980908;28;20042;-78
2022/12/09 10:45:13;;;;;;;23.15;10.60;;;;;;;;;;4982352;28;20046;-79
2022/12/09 10:47:40;;;;;;;23.38;11.70;;;;;;;;;;4966810;28;20090;-80
2022/12/09 10:50:17;;;;;;;24.55;11.35;;;4.10;99.90;;;;;;4967256;28;20090;-80
2022/12/09 10:52:45;;;;;;;20.40;11.35;;;4.10;99.90;;;;;;4973943;28;20034;-83
2022/12/09 10:55:24;;;;;;;21.20;11.80;;;3.90;99.90;;;;;;4990324;28;20022;-80
2022/12/09 10:57:50;;;;;;;21.88;11.18;;;3.80;99.90;;;;;;4985672;23;20019;-81
2022/12/09 11:00:21;;;;;;;23.50;11.35;;;3.70;99.90;;;;;;4945898;29;20095;-81
2022/12/09 11:03:31;;;;;;;21.08;12.13;;;3.70;99.90;;;;;;4943235;29;20546;-82
2022/12/09 11:06:01;;;;;;;21.77;11.43;;;3.70;99.90;;;;;;4944728;29;20032;-81
2022/12/09 11:08:28;;;;;;;20.08;10.95;;;3.70;99.90;;;;;;4922927;29;20038;-82
2022/12/09 11:10:54;;;;;;;19.13;11.32;;;3.60;99.90;;;;;;4942313;29;20110;-80
2022/12/09 11:13:31;;;;;;;22.08;11.18;;;3.60;99.90;;;;;;4936271;29;20028;-84
2022/12/09 11:16:02;;;;;;;22.73;10.27;;;4.50;99.90;;;;;;4936238;29;20043;-83
2022/12/09 11:18:33;;;;;;;18.65;9.95;;;3.60;99.90;;;;;;4939918;29;20040;-84
2022/12/09 11:21:02;;;;;;;22.67;9.77;;;3.60;99.90;;;;;;4941534;29;20062;-81
2022/12/09 11:24:27;;;;;;;18.33;10.35;;;3.60;99.90;;;;;;4942541;29;20047;-80
2022/12/09 11:31:54;;;;;;;16.88;9.35;;;3.50;99.90;;;;;;4834533;29;20132;-82
2022/12/09 11:35:18;;;;;;;20.50;9.80;;;3.60;99.90;;;;;;4938553;29;20039;-82
2022/12/09 11:45:30;;;;;;;;;;;;;;;;;;;;;
2022/12/09 11:52:21;;;;;;;15.82;8.60;;;3.40;99.90;;;;;;4942559;29;20037;-80
2022/12/09 11:55:38;;;;;;;16.67;8.52;;;3.50;99.90;;;;;;4934221;29;20172;-81
2022/12/09 11:58:38;;;;;;;21.33;9.75;;;3.50;99.90;;;;;;4902080;29;20105;-83
2022/12/09 12:25:27;;;;;;;16.40;8.05;;;3.80;99.90;;;;;;4928999;29;20096;-82
2022/12/09 13:21:57;;;;;;;18.20;8.07;;;;;;;;;;4936212;28;20034;-82
2022/12/09 13:24:47;;;;;;;15.32;8.10;;;4.00;99.90;;;;;;4939273;28;20067;-87
2022/12/09 13:27:14;;;;;;;12.48;7.15;;;;;;;;;;4952956;28;20030;-83
2022/12/09 13:33:53;;;;;;;16.00;8.10;;;3.90;99.90;;;;;;4947905;29;20042;-84
2022/12/09 13:36:51;;;;;;;12.13;7.32;;;3.90;99.90;;;;;;4923329;29;20060;-81
2022/12/09 13:39:38;;;;;;;13.93;7.30;;;3.90;99.90;;;;;;4881186;29;20038;-83
2022/12/09 13:46:30;;;;;;;13.18;7.13;;;4.00;99.90;;;;;;4940746;29;20585;-83
2022/12/09 13:53:04;;;;;;;14.82;7.75;;;3.80;99.90;;;;;;4859079;29;20070;-82
2022/12/09 14:03:52;;;;;;;12.48;6.95;;;4.00;99.90;;;;;;4763047;30;20078;-83
2022/12/09 14:07:18;;;;;;;12.27;6.43;;;4.00;99.90;;;;;;4762496;30;20112;-80
2022/12/09 14:16:47;;;;;;;;;;;;;;;;;;;;;
2022/12/09 14:20:05;;;;;;;12.65;6.35;;;3.90;99.90;;;;;;4784187;30;20035;-82
2022/12/09 14:23:15;;;;;;;14.02;7.03;;;3.80;99.90;;;;;;4706419;30;20120;-82
2022/12/09 14:29:04;;;;;;;12.95;7.07;;;3.70;99.90;;;;;;4816426;29;20326;-82
2022/12/09 14:32:03;;;;;;;13.60;6.70;;;3.80;99.90;;;;;;4813575;29;20046;-85
2022/12/09 14:34:30;;;;;;;12.75;6.75;;;;;;;;;;4927582;28;20036;-84
2022/12/09 14:37:30;;;;;;;13.93;7.28;;;3.70;99.90;;;;;;4943104;29;20040;-82
2022/12/09 14:40:23;;;;;;;13.35;7.32;;;3.70;99.90;;;;;;4943447;29;20043;-84
2022/12/09 14:43:47;;;;;;;13.55;6.75;;;3.80;99.90;;;;;;4945203;29;20038;-84
2022/12/09 14:46:37;;;;;;;13.10;7.38;;;3.80;99.90;;;;;;4941128;29;20036;-83
2022/12/09 14:49:13;;;;;;;18.00;8.63;;;3.70;99.90;;;;;;4943667;29;20092;-85
2022/12/09 14:51:55;;;;;;;15.65;7.95;;;3.70;99.90;;;;;;4944955;29;20031;-82
2022/12/09 14:54:33;;;;;;;12.77;7.03;;;3.70;99.90;;;;;;4951516;28;20024;-79
2022/12/09 14:57:24;;;;;;;12.32;6.88;;;4.00;99.90;;;;;;4943485;29;20040;-85
2022/12/09 14:59:56;;;;;;;15.25;7.57;;;3.90;99.90;;;;;;4945170;29;20053;-82
2022/12/09 15:02:41;;;;;;;12.27;6.95;;;3.80;99.90;;;;;;4947824;29;20024;-85
2022/12/09 15:05:17;;;;;;;12.00;6.93;;;3.80;99.90;;;;;;4952423;29;20032;-82
2022/12/09 15:07:47;;;;;;;13.73;8.13;;;3.80;99.90;;;;;;4941717;29;20148;-82
2022/12/09 15:10:22;;;;;;;15.13;7.65;;;3.70;99.90;;;;;;4943717;29;20027;-82
2022/12/09 15:12:53;;;;;;;15.05;8.02;;;3.70;99.90;;;;;;4944635;29;20126;-81
2022/12/09 15:15:31;;;;;;;12.88;6.90;;;3.70;99.90;;;;;;4945364;29;20039;-81
2022/12/09 15:18:04;;;;;;;14.20;7.40;;;3.70;99.90;;;;;;4926160;29;20035;-82
2022/12/09 15:20:55;;;;;;;12.27;6.75;;;3.60;99.90;;;;;;4950898;29;20116;-80
2022/12/09 15:23:36;;;;;;;14.88;7.47;;;3.60;99.90;;;;;;4946546;29;20043;-80
2022/12/09 15:26:33;;;;;;;13.60;7.18;;;3.50;99.90;;;;;;4946851;29;20063;-81
2022/12/09 15:29:04;;;;;;;13.70;7.22;;;3.40;99.90;;;;;;4946154;29;20048;-81
2022/12/09 15:31:31;;;;;;;14.98;7.82;;;3.50;99.90;;;;;;4948490;29;20019;-79
2022/12/09 15:34:06;;;;;;;14.45;7.53;;;3.40;99.90;;;;;;4957986;28;20062;-80
2022/12/09 15:36:37;;;;;;;16.10;8.23;;;3.30;99.90;;;;;;4951727;29;20034;-81
2022/12/09 15:39:18;;;;;;;;;;;3.30;99.90;;;;;;4945195;29;20043;-80
2022/12/09 15:44:55;;;;;;;14.43;7.88;;;3.20;99.90;;;;;;4950530;29;20051;-81
2022/12/09 15:47:33;;;;;;;14.05;7.55;;;3.20;99.90;;;;;;4947454;29;20043;-81
2022/12/09 15:50:06;;;;;;;14.85;7.97;;;3.20;99.90;;;;;;4947766;29;20024;-83
2022/12/09 15:52:42;;;;;;;16.17;8.15;;;3.20;99.90;;;;;;4947496;29;20030;-83
2022/12/09 15:55:14;;;;;;;20.30;8.82;;;3.10;99.90;;;;;;4950227;29;20039;-81
2022/12/09 15:57:41;;;;;;;16.95;9.57;;;3.10;99.90;;;;;;4941333;29;20028;-80
2022/12/09 16:00:08;;;;;;;18.30;9.43;;;3.10;99.90;;;;;;4952047;29;20020;-80
2022/12/09 16:02:38;;;;;;;16.63;9.05;;;3.10;99.90;;;;;;4935743;29;20046;-81
2022/12/09 16:05:07;;;;;;;17.38;9.20;;;3.10;99.90;;;;;;4934810;29;20048;-79
2022/12/09 16:07:34;;;;;;;18.90;8.82;;;3.10;99.90;;;;;;4946146;28;20023;-80
2022/12/09 16:10:07;;;;;;;17.33;9.05;;;3.10;99.90;;;;;;4951211;28;20075;-83
2022/12/09 16:12:33;;;;;;;18.98;9.02;;;3.00;99.90;;;;;;4945645;29;20027;-81
2022/12/09 16:14:59;;;;;;;17.52;8.82;;;3.00;99.90;;;;;;4943302;29;20031;-80
2022/12/09 16:17:29;;;;;;;19.23;9.77;;;3.00;99.90;;;;;;4947411;29;20095;-83
2022/12/09 16:19:55;;;;;;;18.33;9.00;;;;;;;;;;4946165;29;20031;-83
2022/12/09 16:22:25;;;;;;;18.05;9.38;;;3.00;99.90;;;;;;4948055;29;20060;-83
2022/12/09 16:24:59;;;;;;;17.42;9.98;;;2.90;99.90;;;;;;4947556;29;20055;-80
2022/12/09 16:27:28;;;;;;;17.23;9.50;;;2.90;99.90;;;;;;4947856;29;20032;-83
2022/12/09 16:30:02;;;;;;;21.15;10.60;;;2.90;99.90;;;;;;4947567;29;20027;-80
2022/12/09 16:32:32;;;;;;;19.02;10.00;;;2.90;99.90;;;;;;4945008;29;20034;-81
2022/12/09 16:35:10;;;;;;;20.17;10.23;;;2.90;99.90;;;;;;4939187;29;20024;-83
2022/12/09 16:37:41;;;;;;;16.45;9.00;;;2.80;99.90;;;;;;4944706;29;20036;-83
2022/12/09 16:40:23;;;;;;;18.15;9.57;;;;;;;;;;4962190;28;20032;-80
2022/12/09 16:42:50;;;;;;;17.52;8.98;;;2.70;99.90;;;;;;4944424;29;20099;-81
2022/12/09 16:45:22;;;;;;;17.50;9.35;;;;;;;;;;4943211;29;20087;-80
2022/12/09 16:47:53;;;;;;;21.63;11.13;;;2.70;99.90;;;;;;4943325;29;20642;-78
2022/12/09 16:50:19;;;;;;;19.55;9.77;;;;;;;;;;4942667;29;20035;-80
2022/12/09 16:52:45;;;;;;;20.02;11.13;;;;;;;;;;4944560;29;20035;-82
2022/12/09 16:55:21;;;;;;;22.67;10.60;;;2.60;99.90;;;;;;4944455;29;20028;-79
2022/12/09 16:57:47;;;;;;;20.00;10.90;;;;;;;;;;4949264;29;20043;-81
2022/12/09 17:00:14;;;;;;;20.10;10.45;;;;;;;;;;4945639;29;20046;-79
2022/12/09 17:02:48;;;;;;;22.98;12.77;;;2.40;99.90;;;;;;4947031;29;20078;-79
2022/12/09 17:05:14;;;;;;;21.23;11.55;;;;;;;;;;4942648;28;20029;-79
2022/12/09 17:07:40;;;;;;;22.27;11.93;;;;;;;;;;4947589;28;20023;-81
2022/12/09 17:10:07;;;;;;;20.50;11.70;;;;;;;;;;4953668;28;20032;-81
2022/12/09 17:12:33;;;;;;;19.15;10.45;;;;;;;;;;4952722;28;20011;-81
2022/12/09 17:14:58;;;;;;;21.63;11.48;;;;;;;;;;4949912;28;20031;-78
2022/12/09 17:17:24;;;;;;;21.00;10.93;;;;;;;;;;4951278;29;20614;-84
2022/12/09 17:19:51;;;;;;;19.95;10.45;;;;;;;;;;4951950;29;20024;-82
2022/12/09 17:22:17;;;;;;;20.35;10.23;;;;;;;;;;4966541;28;20059;-79
2022/12/09 17:24:43;;;;;;;21.55;10.85;;;;;;;;;;4955544;29;20016;-81
2022/12/09 17:27:09;;;;;;;20.02;11.13;;;;;;;;;;4954467;29;20075;-79
2022/12/09 17:29:36;;;;;;;26.38;11.93;;;;;;;;;;4956097;29;20504;-85
2022/12/09 17:32:02;;;;;;;21.30;11.27;;;;;;;;;;4949485;29;20386;-78
2022/12/09 17:34:28;;;;;;;19.48;10.02;;;;;;;;;;4939040;29;20032;-80
2022/12/09 17:36:54;;;;;;;20.15;11.35;;;;;;;;;;4938792;29;20042;-81
2022/12/09 17:39:21;;;;;;;19.77;11.02;;;2.60;99.90;;;;;;4926308;29;20043;-80
2022/12/09 17:41:48;;;;;;;17.73;10.45;;;;;;;;;;4924550;29;20035;-80
2022/12/09 17:44:14;;;;;;;19.67;10.70;;;;;;;;;;4935234;29;20063;-80
2022/12/09 17:46:40;;;;;;;24.05;13.57;;;;;;;;;;4932601;29;20035;-82
2022/12/09 17:49:07;;;;;;;19.98;11.38;;;;;;;;;;4937609;29;20028;-81
2022/12/09 17:51:32;;;;;;;25.17;12.07;;;2.50;99.90;;;;;;4931753;29;20038;-79
2022/12/09 17:53:59;;;;;;;20.08;11.43;;;;;;;;;;4935195;29;20032;-80
2022/12/09 17:56:24;;;;;;;21.25;11.55;;;2.50;99.90;;;;;;4935139;29;20043;-82
2022/12/09 17:58:59;;;;;;;24.63;13.07;;;2.90;99.90;;;;;;4941062;29;20020;-80
2022/12/09 18:01:25;;;;;;;24.33;12.20;;;;;;;;;;4938707;29;20035;-81
2022/12/09 18:03:58;;;;;;;26.27;12.32;;;2.40;99.90;;;;;;4937655;29;20032;-78
2022/12/09 18:06:25;;;;;;;60.05;29.40;;;2.40;99.90;;;;;;4939412;29;21019;-82
2022/12/09 18:08:51;;;;;;;33.30;15.60;;;;;;;;;;4927116;29;20034;-78
2022/12/09 18:11:17;;;;;;;26.48;14.40;;;;;;;;;;4941590;29;20091;-83
2022/12/09 18:13:43;;;;;;;26.75;14.07;;;;;;;;;;4949841;29;20046;-82
2022/12/09 18:16:10;;;;;;;25.35;14.02;;;2.50;99.90;;;;;;4951071;29;20588;-84
2022/12/09 18:18:37;;;;;;;25.52;13.70;;;2.50;99.90;;;;;;4943346;29;20130;-82
2022/12/09 18:21:03;;;;;;;22.95;12.85;;;;;;;;;;4951915;29;20047;-82
2022/12/09 18:23:29;;;;;;;29.27;14.02;;;;;;;;;;4944896;29;20047;-79
2022/12/09 18:25:56;;;;;;;27.08;13.70;;;2.50;99.90;;;;;;4951691;29;20050;-83
2022/12/09 18:28:26;;;;;;;25.77;13.70;;;;;;;;;;4942471;29;20016;-80
2022/12/09 18:30:55;;;;;;;28.10;14.00;;;2.50;99.90;;;;;;4946676;29;20031;-80
2022/12/09 18:33:24;;;;;;;22.73;12.88;;;;;;;;;;4947078;29;20036;-81
2022/12/09 18:35:50;;;;;;;26.40;14.93;;;;;;;;;;4949456;29;20028;-84
2022/12/09 18:38:16;;;;;;;24.23;13.82;;;;;;;;;;4948960;29;20043;-80
2022/12/09 18:41:01;;;;;;;22.85;11.63;;;2.40;99.90;;;;;;4945256;29;20035;-80
2022/12/09 18:43:27;;;;;;;24.33;12.60;;;2.30;99.90;;;;;;4951352;28;20126;-82
2022/12/09 18:45:53;;;;;;;26.90;13.68;;;;;;;;;;4948495;29;20035;-81
2022/12/09 18:48:19;;;;;;;22.90;13.07;;;;;;;;;;4950943;29;20039;-79
2022/12/09 18:50:45;;;;;;;25.55;13.70;;;;;;;;;;4949549;29;20027;-82
2022/12/09 18:53:11;;;;;;;24.08;13.55;;;;;;;;;;4950072;29;20092;-81
2022/12/09 18:55:42;;;;;;;27.00;14.27;;;2.10;99.90;;;;;;4943963;29;20058;-79
2022/12/09 18:58:08;;;;;;;25.05;14.35;;;;;;;;;;4948791;28;20038;-78
2022/12/09 19:00:35;;;;;;;26.40;14.93;;;;;;;;;;4941893;28;20047;-78
2022/12/09 19:03:01;;;;;;;26.90;15.18;;;;;;;;;;4946305;29;20121;-81
2022/12/09 19:05:26;;;;;;;38.63;18.50;;;2.10;99.90;;;;;;4946221;29;20032;-83
2022/12/09 19:07:52;;;;;;;33.97;17.05;;;;;;;;;;4945484;29;20109;-82
2022/12/09 19:10:18;;;;;;;32.55;16.10;;;;;;;;;;4942990;29;20040;-81
2022/12/09 19:12:44;;;;;;;29.55;15.60;;;2.10;99.90;;;;;;4947553;29;20047;-80
2022/12/09 19:15:10;;;;;;;31.92;16.13;;;;;;;;;;4944779;29;20036;-82
2022/12/09 19:17:38;;;;;;;30.15;16.48;;;;;;;;;;4943727;29;20028;-80
2022/12/09 19:20:05;;;;;;;31.85;16.85;;;2.10;99.90;;;;;;4942018;29;20039;-80
2022/12/09 19:22:31;;;;;;;29.35;15.05;;;;;;;;;;4936074;29;20035;-81
2022/12/09 19:24:57;;;;;;;28.08;16.08;;;;;;;;;;4941710;29;20030;-81
2022/12/09 19:27:23;;;;;;;26.25;15.10;;;;;;;;;;4945555;29;20028;-82
2022/12/09 19:29:49;;;;;;;28.00;15.45;;;;;;;;;;4945721;28;20273;-81
2022/12/09 19:32:15;;;;;;;30.42;16.95;;;;;;;;;;4942755;28;20142;-80
2022/12/09 19:34:41;;;;;;;32.92;17.98;;;;;;;;;;4938618;29;20051;-80
2022/12/09 19:37:07;;;;;;;32.95;17.40;;;;;;;;;;4939538;29;20078;-84
2022/12/09 19:39:33;;;;;;;33.42;18.90;;;;;;;;;;4937613;29;20047;-84
2022/12/09 19:42:00;;;;;;;38.80;19.35;;;2.00;99.90;;;;;;4920583;29;20028;-80
2022/12/09 19:44:26;;;;;;;36.97;19.02;;;2.00;99.90;;;;;;4937921;29;20039;-82
2022/12/09 19:46:53;;;;;;;33.75;17.95;;;2.00;99.90;;;;;;4935904;29;20034;-81
2022/12/09 19:49:20;;;;;;;31.88;17.13;;;2.00;99.90;;;;;;4934882;29;20081;-82